Time;durP1;ratioP1;P1;durP2;ratioP2;P2;SDS_P1;SDS_P2;PMS_P1;PMS_P2;Temp;Humidity;BMP_temperature;BMP_pressure;BME280_temperature;BME280_humidity;BME280_pressure;Samples;Min_cycle;Max_cycle;Signal;HPM_P1;HPM_P2
2022/08/04 00:01:56;;;;;;;8.97;4.17;;;21.70;1.00;;;;;;5025321;28;20476;-75
2022/08/04 00:04:37;;;;;;;6.77;4.80;;;21.70;1.00;;;;;;5029626;28;20426;-75
2022/08/04 00:07:37;;;;;;;6.03;4.33;;;21.60;1.00;;;;;;5016360;28;20844;-75
2022/08/04 00:10:05;;;;;;;13.93;4.30;;;21.60;1.00;;;;;;5019172;28;20545;-75
2022/08/04 00:12:35;;;;;;;5.90;4.43;;;21.60;1.00;;;;;;5033272;28;20459;-75
2022/08/04 00:15:05;;;;;;;9.60;4.77;;;21.60;1.00;;;;;;5032617;28;20453;-80
2022/08/04 00:17:58;;;;;;;6.33;5.00;;;21.50;1.00;;;;;;5031633;28;20450;-80
2022/08/04 00:20:38;;;;;;;5.60;4.67;;;21.50;1.00;;;;;;5040375;28;20436;-80
2022/08/04 00:23:16;;;;;;;7.87;4.17;;;21.50;1.00;;;;;;5020598;28;20426;-80
2022/08/04 00:25:45;;;;;;;8.50;4.80;;;21.50;1.00;;;;;;5023362;28;20902;-80
2022/08/04 00:28:23;;;;;;;6.03;4.40;;;21.40;1.00;;;;;;5032392;28;20434;-80
2022/08/04 00:31:21;;;;;;;5.50;4.43;;;21.40;1.00;;;;;;5031509;28;20446;-80
2022/08/04 00:34:27;;;;;;;4.40;4.00;;;21.40;1.00;;;;;;5018621;28;20996;-80
2022/08/04 00:36:57;;;;;;;4.37;3.97;;;21.40;1.00;;;;;;5022978;28;20447;-80
2022/08/04 00:39:24;;;;;;;4.60;4.20;;;21.40;1.00;;;;;;5017157;28;20444;-80
2022/08/04 00:45:46;;;;;;;9.70;4.77;;;21.30;1.00;;;;;;5022526;28;20408;-80
2022/08/04 00:48:32;;;;;;;12.40;4.50;;;21.30;1.00;;;;;;5034339;28;20402;-80
2022/08/04 00:51:14;;;;;;;7.93;4.87;;;21.30;1.00;;;;;;5029146;28;20941;-80
2022/08/04 00:54:23;;;;;;;8.70;4.67;;;21.30;1.00;;;;;;5028183;28;20778;-80
2022/08/04 00:57:27;;;;;;;7.93;5.40;;;21.20;1.00;;;;;;5015473;28;20833;-80
2022/08/04 01:00:10;;;;;;;7.73;4.37;;;21.20;1.00;;;;;;5022880;28;20458;-80
2022/08/04 01:02:58;;;;;;;7.17;4.40;;;21.20;1.00;;;;;;5020370;28;20425;-80
2022/08/04 01:06:12;;;;;;;4.40;4.00;;;21.20;1.00;;;;;;5015988;28;20781;-80
2022/08/04 01:08:54;;;;;;;6.77;4.97;;;21.20;1.00;;;;;;4950054;29;21112;-80
2022/08/04 01:11:34;;;;;;;6.67;4.13;;;21.20;1.00;;;;;;4941659;29;20507;-80
2022/08/04 01:14:15;;;;;;;7.37;4.60;;;21.20;1.00;;;;;;4930013;29;20427;-80
2022/08/04 01:17:22;;;;;;;7.13;4.37;;;21.20;1.00;;;;;;4914897;29;20438;-80
2022/08/04 01:20:10;;;;;;;9.40;5.13;;;21.10;1.00;;;;;;4874864;29;20445;-80
2022/08/04 01:23:28;;;;;;;6.20;4.70;;;21.10;1.00;;;;;;4870696;29;20443;-80
2022/08/04 01:26:21;;;;;;;10.53;4.77;;;21.10;1.00;;;;;;4822525;29;20837;-80
2022/08/04 01:29:22;;;;;;;6.70;4.33;;;21.00;1.00;;;;;;4804378;29;20431;-80
2022/08/04 01:32:15;;;;;;;9.63;4.70;;;21.00;1.00;;;;;;4826756;29;20967;-76
2022/08/04 01:35:01;;;;;;;5.47;4.33;;;21.00;1.00;;;;;;4840759;29;20496;-76
2022/08/04 01:37:33;;;;;;;9.63;4.53;;;21.00;1.00;;;;;;4828634;29;20523;-76
2022/08/04 01:40:16;;;;;;;6.30;4.30;;;21.00;1.00;;;;;;4892478;29;20427;-76
2022/08/04 01:42:44;;;;;;;5.40;4.03;;;21.00;1.00;;;;;;4900357;29;20449;-75
2022/08/04 01:45:48;;;;;;;10.83;5.00;;;21.00;1.00;;;;;;4903945;29;20451;-80
2022/08/04 01:48:15;;;;;;;10.97;4.63;;;20.90;1.00;;;;;;4895793;29;20459;-80
2022/08/04 01:51:03;;;;;;;14.83;4.67;;;20.90;1.00;;;;;;4906438;29;20645;-80
2022/08/04 01:53:47;;;;;;;8.73;4.60;;;20.80;1.00;;;;;;4896482;29;20830;-80
2022/08/04 01:56:29;;;;;;;15.33;4.60;;;20.90;1.00;;;;;;4914525;28;20454;-80
2022/08/04 01:59:04;;;;;;;8.27;4.40;;;20.80;1.00;;;;;;4953444;28;20445;-80
2022/08/04 02:01:39;;;;;;;7.43;4.60;;;20.80;1.00;;;;;;4988205;28;20436;-76
2022/08/04 02:04:24;;;;;;;5.20;4.20;;;20.80;1.00;;;;;;5031705;28;20411;-76
2022/08/04 02:06:56;;;;;;;7.67;4.40;;;20.80;1.00;;;;;;5028887;28;20842;-76
2022/08/04 02:09:58;;;;;;;5.90;4.60;;;20.70;1.00;;;;;;5033501;28;20429;-76
2022/08/04 02:12:39;;;;;;;7.30;4.30;;;20.70;1.00;;;;;;5021083;28;20530;-76
2022/08/04 02:15:23;;;;;;;6.00;4.27;;;20.70;1.00;;;;;;5032748;28;20498;-76
2022/08/04 02:18:02;;;;;;;6.90;4.77;;;20.70;1.00;;;;;;5017905;28;20386;-75
2022/08/04 02:20:56;;;;;;;5.37;4.50;;;20.60;1.00;;;;;;5025991;28;20477;-76
2022/08/04 02:23:27;;;;;;;9.17;4.33;;;20.60;1.00;;;;;;5036710;28;20439;-75
2022/08/04 02:26:10;;;;;;;7.57;4.30;;;20.50;1.00;;;;;;5036419;28;20411;-76
2022/08/04 02:28:58;;;;;;;6.70;4.30;;;20.50;1.00;;;;;;5026385;28;20456;-76
2022/08/04 02:32:03;;;;;;;11.40;4.50;;;20.60;1.00;;;;;;5037307;28;20488;-80
2022/08/04 02:34:59;;;;;;;11.27;5.33;;;20.50;1.00;;;;;;5031444;28;20436;-80
2022/08/04 02:37:30;;;;;;;10.20;5.70;;;20.50;1.00;;;;;;5017734;28;20460;-80
2022/08/04 02:39:58;;;;;;;8.60;5.40;;;20.50;1.00;;;;;;5024123;28;20895;-80
2022/08/04 02:42:26;;;;;;;6.70;4.80;;;20.50;1.00;;;;;;5021822;28;20403;-81
2022/08/04 02:44:55;;;;;;;5.80;4.97;;;20.50;1.00;;;;;;5024513;28;20426;-80
2022/08/04 02:47:24;;;;;;;9.60;5.37;;;20.40;1.00;;;;;;5031101;28;20518;-76
2022/08/04 02:49:51;;;;;;;6.23;4.70;;;20.50;1.00;;;;;;5025917;28;20426;-76
2022/08/04 02:52:19;;;;;;;7.13;4.70;;;20.40;1.00;;;;;;5024785;28;20979;-76
2022/08/04 02:54:50;;;;;;;6.63;4.30;;;20.40;1.00;;;;;;5022804;28;20431;-76
2022/08/04 02:57:28;;;;;;;6.43;4.63;;;20.40;1.00;;;;;;5017106;28;20440;-76
2022/08/04 03:00:13;;;;;;;6.70;5.10;;;20.40;1.00;;;;;;5016535;28;20420;-76
2022/08/04 03:02:48;;;;;;;5.57;4.93;;;20.40;1.00;;;;;;5017608;28;20403;-76
2022/08/04 03:05:37;;;;;;;11.57;4.87;;;20.40;1.00;;;;;;5017249;28;20427;-76
2022/08/04 03:08:33;;;;;;;5.70;4.67;;;20.40;1.00;;;;;;5030855;28;20434;-76
2022/08/04 03:11:12;;;;;;;4.80;4.30;;;20.40;1.00;;;;;;5026453;28;20531;-76
2022/08/04 03:13:57;;;;;;;4.90;4.40;;;20.40;1.00;;;;;;5021342;28;20419;-76
2022/08/04 03:16:45;;;;;;;6.80;4.60;;;20.30;1.00;;;;;;5035647;28;20420;-76
2022/08/04 03:19:27;;;;;;;10.23;4.63;;;20.30;1.00;;;;;;5016936;28;20782;-76
2022/08/04 03:22:10;;;;;;;4.97;4.47;;;20.30;1.00;;;;;;5029251;28;20479;-76
2022/08/04 03:25:04;;;;;;;11.23;4.83;;;20.30;1.00;;;;;;5031392;28;20491;-75
2022/08/04 03:27:57;;;;;;;7.17;4.20;;;20.30;1.00;;;;;;5016506;28;20411;-76
2022/08/04 03:31:09;;;;;;;4.47;4.07;;;20.20;1.00;;;;;;5024727;28;20794;-76
2022/08/04 03:34:03;;;;;;;8.90;4.50;;;20.30;1.00;;;;;;5052747;28;20921;-80
2022/08/04 03:36:54;;;;;;;7.90;4.80;;;20.20;1.00;;;;;;5049245;28;20446;-80
2022/08/04 03:39:57;;;;;;;8.90;4.23;;;20.20;1.00;;;;;;5053651;28;20393;-80
2022/08/04 03:42:57;;;;;;;5.27;4.03;;;20.10;1.00;;;;;;5048560;28;20510;-80
2022/08/04 03:45:52;;;;;;;5.77;4.50;;;20.10;1.00;;;;;;5052282;28;20785;-80
2022/08/04 03:48:48;;;;;;;4.90;4.50;;;20.10;1.00;;;;;;5033948;28;20531;-80
2022/08/04 03:54:46;;;;;;;5.67;4.43;;;20.10;1.00;;;;;;5065124;28;20464;-80
2022/08/04 03:57:46;;;;;;;5.70;4.47;;;20.10;1.00;;;;;;5039401;28;20430;-80
2022/08/04 04:00:42;;;;;;;7.73;5.07;;;20.10;1.00;;;;;;5036884;28;20425;-82
2022/08/04 04:03:33;;;;;;;4.80;4.30;;;20.10;1.00;;;;;;4992501;28;20528;-83
2022/08/04 04:06:26;;;;;;;8.23;4.60;;;20.10;1.00;;;;;;4977110;28;20440;-79
2022/08/04 04:09:29;;;;;;;9.33;4.60;;;20.10;1.00;;;;;;4973367;28;20902;-78
2022/08/04 04:12:34;;;;;;;7.30;4.40;;;20.00;1.00;;;;;;4978000;28;20445;-79
2022/08/04 04:15:31;;;;;;;8.63;4.43;;;20.10;1.00;;;;;;4989907;28;20516;-79
2022/08/04 04:18:26;;;;;;;5.60;4.20;;;20.10;1.00;;;;;;4993158;28;20916;-79
2022/08/04 04:21:35;;;;;;;4.27;3.90;;;20.10;1.00;;;;;;4973948;28;20462;-79
2022/08/04 04:24:23;;;;;;;5.97;4.20;;;20.10;1.00;;;;;;4970640;28;20460;-79
2022/08/04 04:27:33;;;;;;;10.70;4.67;;;20.10;1.00;;;;;;4973676;28;20419;-79
2022/08/04 04:30:24;;;;;;;11.53;4.30;;;20.10;1.00;;;;;;4973538;28;20422;-79
2022/08/04 04:33:22;;;;;;;5.50;4.80;;;20.10;1.00;;;;;;4973999;28;20505;-79
2022/08/04 04:36:13;;;;;;;6.37;4.50;;;20.10;1.00;;;;;;4973049;28;20448;-79
2022/08/04 04:38:57;;;;;;;5.83;5.03;;;20.10;1.00;;;;;;4980623;28;20592;-78
2022/08/04 04:42:09;;;;;;;9.43;4.60;;;20.10;1.00;;;;;;5032149;28;20782;-79
2022/08/04 04:45:15;;;;;;;16.97;5.33;;;20.20;1.00;;;;;;4934493;29;20972;-79
2022/08/04 04:48:36;;;;;;;7.17;4.60;;;20.20;1.00;;;;;;4933225;29;20414;-78
2022/08/04 04:51:27;;;;;;;4.90;4.43;;;20.30;1.00;;;;;;4883663;29;20501;-78
2022/08/04 04:54:11;;;;;;;5.67;4.17;;;20.40;1.00;;;;;;4897095;29;20419;-78
2022/08/04 04:56:57;;;;;;;6.27;4.80;;;20.40;1.00;;;;;;4897107;29;20428;-78
2022/08/04 04:59:59;;;;;;;6.50;4.93;;;20.50;1.00;;;;;;4897235;29;20415;-78
2022/08/04 05:02:42;;;;;;;6.90;4.33;;;20.50;1.00;;;;;;4903027;29;20533;-78
2022/08/04 05:05:38;;;;;;;5.93;4.10;;;20.60;1.00;;;;;;4912276;29;20914;-78
2022/08/04 05:08:33;;;;;;;5.23;4.73;;;20.60;1.00;;;;;;4906806;29;20492;-79
2022/08/04 05:11:33;;;;;;;8.67;4.97;;;20.70;1.00;;;;;;4897124;29;20562;-79
2022/08/04 05:14:47;;;;;;;12.03;4.30;;;20.80;1.00;;;;;;4906869;29;20433;-78
2022/08/04 05:17:32;;;;;;;4.40;4.00;;;20.90;1.00;;;;;;4886237;29;20496;-78
2022/08/04 05:20:06;;;;;;;5.03;4.17;;;20.90;1.00;;;;;;4883825;29;20502;-78
2022/08/04 05:22:53;;;;;;;8.80;5.10;;;21.00;1.00;;;;;;4934617;29;20789;-78
2022/08/04 05:25:50;;;;;;;11.17;4.73;;;21.10;1.00;;;;;;4965198;28;20492;-78
2022/08/04 05:28:20;;;;;;;8.17;4.80;;;21.30;1.00;;;;;;4994543;28;20456;-78
2022/08/04 05:31:20;;;;;;;12.20;4.40;;;21.40;1.00;;;;;;4991644;28;21020;-78
2022/08/04 05:33:57;;;;;;;4.90;4.40;;;21.50;1.00;;;;;;4959577;28;20443;-78
2022/08/04 05:36:53;;;;;;;5.10;4.63;;;21.60;1.00;;;;;;4969281;28;20939;-78
2022/08/04 05:39:25;;;;;;;12.83;4.20;;;21.70;1.00;;;;;;4947529;29;20441;-78
2022/08/04 05:41:59;;;;;;;24.73;5.10;;;21.80;1.00;;;;;;4960139;28;20465;-78
2022/08/04 05:44:41;;;;;;;8.00;4.40;;;21.90;1.00;;;;;;4970158;28;20459;-78
2022/08/04 05:47:10;;;;;;;12.90;4.47;;;22.00;1.00;;;;;;4957642;28;20440;-78
2022/08/04 05:50:15;;;;;;;5.53;4.13;;;22.10;1.00;;;;;;4953751;29;20420;-78
2022/08/04 05:52:48;;;;;;;9.87;4.70;;;22.30;1.00;;;;;;4951347;28;20608;-78
2022/08/04 05:55:39;;;;;;;8.70;3.90;;;22.40;1.00;;;;;;4953300;29;20502;-78
2022/08/04 05:58:16;;;;;;;5.23;3.80;;;22.60;1.00;;;;;;4934273;29;20423;-78
2022/08/04 06:01:00;;;;;;;8.00;4.20;;;22.80;1.00;;;;;;4946392;29;20495;-78
2022/08/04 06:04:15;;;;;;;9.90;4.17;;;23.10;1.00;;;;;;4938640;28;20434;-79
2022/08/04 06:06:47;;;;;;;8.30;3.90;;;23.30;1.00;;;;;;4947969;29;20490;-79
2022/08/04 06:09:14;;;;;;;6.03;3.50;;;23.40;1.00;;;;;;4952189;28;20996;-69
2022/08/04 06:11:42;;;;;;;7.00;3.80;;;23.60;1.00;;;;;;5029398;28;20943;-69
2022/08/04 06:14:11;;;;;;;3.90;3.50;;;23.70;1.00;;;;;;5023950;28;20440;-69
2022/08/04 06:16:42;;;;;;;4.20;3.80;;;23.90;1.00;;;;;;5028560;28;20451;-69
2022/08/04 06:19:11;;;;;;;6.20;3.50;;;24.10;1.00;;;;;;5031443;28;20474;-74
2022/08/04 06:21:41;;;;;;;8.43;4.10;;;24.20;1.00;;;;;;5036533;28;20526;-75
2022/08/04 06:24:14;;;;;;;5.77;3.93;;;24.40;1.00;;;;;;5027575;28;20440;-75
2022/08/04 06:26:42;;;;;;;4.17;3.70;;;24.60;1.00;;;;;;5024659;28;20925;-74
2022/08/04 06:29:42;;;;;;;7.80;4.37;;;24.80;1.00;;;;;;5019816;28;20884;-75
2022/08/04 06:32:26;;;;;;;4.20;3.90;;;25.00;1.00;;;;;;5024315;28;20478;-75
2022/08/04 06:34:54;;;;;;;3.53;3.23;;;25.20;1.00;;;;;;5013438;28;20771;-74
2022/08/04 06:37:21;;;;;;;5.30;3.57;;;25.40;1.00;;;;;;5026694;28;20441;-74
2022/08/04 06:39:48;;;;;;;5.63;3.60;;;25.60;1.00;;;;;;5025359;28;20414;-75
2022/08/04 06:42:15;;;;;;;8.37;3.60;;;25.80;1.00;;;;;;5012797;28;20448;-74
2022/08/04 06:44:42;;;;;;;5.23;3.60;;;26.00;1.00;;;;;;5014308;28;20454;-75
2022/08/04 06:47:09;;;;;;;9.70;3.80;;;26.20;1.00;;;;;;5011067;28;20832;-78
2022/08/04 06:49:38;;;;;;;10.93;3.50;;;26.40;1.00;;;;;;5012576;28;20425;-79
2022/08/04 06:52:05;;;;;;;7.57;3.77;;;26.60;1.00;;;;;;5012239;28;20821;-78
2022/08/04 06:54:31;;;;;;;8.10;3.13;;;26.70;1.00;;;;;;5011257;28;20459;-78
2022/08/04 06:57:00;;;;;;;6.50;3.40;;;26.90;1.00;;;;;;5014955;28;20937;-79
2022/08/04 06:59:27;;;;;;;4.70;3.23;;;27.00;1.00;;;;;;5016337;28;20419;-78
2022/08/04 07:01:54;;;;;;;4.17;3.67;;;27.20;1.00;;;;;;5015640;28;20435;-79
2022/08/04 07:04:20;;;;;;;3.10;2.90;;;27.30;1.00;;;;;;5021985;28;20428;-80
2022/08/04 07:06:46;;;;;;;8.30;4.40;;;27.40;1.00;;;;;;5022379;28;20482;-69
2022/08/04 07:09:12;;;;;;;5.20;3.70;;;27.50;1.00;;;;;;5021428;28;20479;-69
2022/08/04 07:11:38;;;;;;;3.83;3.53;;;27.60;1.00;;;;;;5021991;28;20213;-69
2022/08/04 07:14:04;;;;;;;10.27;3.40;;;27.70;1.00;;;;;;5015255;28;20180;-69
2022/08/04 07:16:30;;;;;;;4.13;3.40;;;27.90;1.00;;;;;;5015488;28;20182;-69
2022/08/04 07:18:56;;;;;;;5.50;3.40;;;28.00;1.00;;;;;;5015466;28;20422;-69
2022/08/04 07:21:22;;;;;;;5.93;3.50;;;28.20;1.00;;;;;;5032532;28;20441;-69
2022/08/04 07:23:49;;;;;;;4.27;3.80;;;28.30;1.00;;;;;;5025988;28;20258;-69
2022/08/04 07:26:17;;;;;;;6.90;3.40;;;28.30;1.00;;;;;;5014920;28;20597;-69
2022/08/04 07:28:43;;;;;;;5.90;3.70;;;28.40;1.00;;;;;;5015375;28;20902;-69
2022/08/04 07:31:18;;;;;;;6.37;3.53;;;28.60;1.00;;;;;;5014723;28;20478;-69
2022/08/04 07:33:45;;;;;;;3.23;3.00;;;28.70;1.00;;;;;;5015266;28;20206;-74
2022/08/04 07:36:12;;;;;;;6.00;3.57;;;28.80;1.00;;;;;;5015284;28;20441;-75
2022/08/04 07:38:40;;;;;;;3.50;3.20;;;29.00;1.00;;;;;;5020981;28;20441;-75
2022/08/04 07:41:06;;;;;;;3.17;2.90;;;29.10;1.00;;;;;;5028200;28;20525;-75
2022/08/04 07:43:32;;;;;;;3.20;2.90;;;29.20;1.00;;;;;;5015102;28;20434;-75
2022/08/04 07:45:57;;;;;;;3.70;3.33;;;29.30;1.00;;;;;;5015197;28;20806;-75
2022/08/04 07:48:23;;;;;;;3.53;3.23;;;29.50;1.00;;;;;;5025682;28;20222;-72
2022/08/04 07:50:50;;;;;;;5.33;3.47;;;29.70;1.00;;;;;;5023316;28;20196;-71
2022/08/04 07:53:17;;;;;;;3.13;2.83;;;29.80;1.00;;;;;;5018996;28;20211;-71
2022/08/04 07:55:45;;;;;;;3.27;2.97;;;30.00;1.00;;;;;;5014478;28;20450;-71
2022/08/04 07:58:11;;;;;;;3.63;3.20;;;30.20;1.00;;;;;;5014814;28;20927;-71
2022/08/04 08:00:37;;;;;;;6.00;3.30;;;30.40;1.00;;;;;;5017799;28;20508;-71
2022/08/04 08:03:03;;;;;;;5.47;2.93;;;30.50;1.00;;;;;;5015747;28;20193;-71
2022/08/04 08:05:29;;;;;;;6.30;3.43;;;30.60;1.00;;;;;;5014801;28;20782;-72
2022/08/04 08:07:56;;;;;;;3.10;2.80;;;30.60;1.00;;;;;;5014749;28;20435;-71
2022/08/04 08:10:23;;;;;;;3.07;2.87;;;30.80;1.00;;;;;;5014430;28;20559;-71
2022/08/04 08:12:52;;;;;;;8.03;3.47;;;30.90;1.00;;;;;;5029435;28;20462;-83
2022/08/04 08:15:18;;;;;;;3.10;2.90;;;31.00;1.00;;;;;;5013651;28;20426;-73
2022/08/04 08:17:44;;;;;;;5.53;3.50;;;31.00;1.00;;;;;;5014757;28;20430;-72
2022/08/04 08:20:10;;;;;;;4.40;2.73;;;31.10;1.00;;;;;;5018101;28;20665;-72
2022/08/04 08:22:36;;;;;;;3.13;2.83;;;31.30;1.00;;;;;;5031333;28;20184;-72
2022/08/04 08:25:05;;;;;;;6.73;3.00;;;31.50;1.00;;;;;;5032241;28;20206;-72
2022/08/04 08:27:30;;;;;;;4.63;2.63;;;31.60;1.00;;;;;;5032149;28;20489;-72
2022/08/04 08:29:56;;;;;;;11.07;3.57;;;31.70;1.00;;;;;;5013959;28;20424;-72
2022/08/04 08:32:22;;;;;;;3.90;3.10;;;31.90;1.00;;;;;;5017583;28;20244;-72
2022/08/04 08:34:47;;;;;;;6.30;2.97;;;32.00;1.00;;;;;;5020830;28;20204;-72
2022/08/04 08:37:32;;;;;;;4.27;2.77;;;32.00;1.00;;;;;;5036023;28;20605;-72
2022/08/04 08:40:18;;;;;;;10.27;2.67;;;32.00;1.00;;;;;;5013885;28;20716;-73
2022/08/04 08:43:05;;;;;;;5.27;2.73;;;32.10;1.00;;;;;;5024641;28;20486;-73
2022/08/04 08:45:55;;;;;;;2.97;2.70;;;32.10;1.00;;;;;;5018641;28;20420;-73
2022/08/04 08:49:03;;;;;;;4.77;2.93;;;32.20;1.00;;;;;;5015740;28;20449;-73
2022/08/04 08:52:03;;;;;;;9.60;2.87;;;32.40;1.00;;;;;;5021392;28;20814;-73
2022/08/04 08:54:53;;;;;;;3.37;2.80;;;32.50;1.00;;;;;;5026357;28;20492;-73
2022/08/04 08:57:45;;;;;;;3.73;2.30;;;32.60;1.00;;;;;;5015464;28;20412;-73
2022/08/04 09:00:33;;;;;;;8.53;2.30;;;32.60;1.00;;;;;;5013473;28;20416;-73
2022/08/04 09:03:23;;;;;;;3.97;2.20;;;32.70;1.00;;;;;;5013320;28;20470;-73
2022/08/04 09:06:03;;;;;;;5.50;2.33;;;32.80;1.00;;;;;;5024705;28;20498;-72
2022/08/04 09:08:45;;;;;;;3.20;2.77;;;32.90;1.00;;;;;;5027576;28;20454;-72
2022/08/04 09:11:28;;;;;;;11.13;3.70;;;32.90;1.00;;;;;;5026222;28;20479;-73
2022/08/04 09:14:15;;;;;;;3.53;2.90;;;32.70;1.00;;;;;;5005475;28;20588;-72
2022/08/04 09:17:01;;;;;;;3.37;3.00;;;32.80;1.00;;;;;;5007278;28;20422;-72
2022/08/04 09:19:31;;;;;;;6.90;2.77;;;32.90;1.00;;;;;;5008245;28;20455;-72
2022/08/04 09:22:06;;;;;;;3.40;2.60;;;32.90;1.00;;;;;;5008076;28;20946;-73
2022/08/04 09:24:58;;;;;;;2.90;2.70;;;32.70;1.00;;;;;;5007331;28;20527;-73
2022/08/04 09:27:29;;;;;;;2.50;2.30;;;32.80;1.00;;;;;;5008049;28;20430;-73
2022/08/04 09:30:05;;;;;;;2.80;2.60;;;32.90;1.00;;;;;;5014327;28;20431;-73
2022/08/04 09:33:14;;;;;;;2.60;2.50;;;32.90;1.00;;;;;;5007598;28;20467;-73
2022/08/04 09:35:48;;;;;;;2.80;2.53;;;33.00;1.00;;;;;;5029012;28;20611;-73
2022/08/04 09:38:22;;;;;;;7.10;2.33;;;33.10;1.00;;;;;;5027911;28;20441;-72
2022/08/04 09:40:54;;;;;;;2.43;2.23;;;33.20;1.00;;;;;;5032273;28;20520;-72
2022/08/04 09:44:00;;;;;;;11.40;2.80;;;33.30;1.00;;;;;;5028274;28;20808;-81
2022/08/04 09:46:41;;;;;;;2.60;2.40;;;33.30;1.00;;;;;;5029982;28;20441;-79
2022/08/04 09:49:15;;;;;;;6.23;2.40;;;33.50;1.00;;;;;;5033205;28;20846;-79
2022/08/04 09:51:57;;;;;;;2.90;2.70;;;33.60;1.00;;;;;;5050583;28;20997;-77
2022/08/04 09:54:28;;;;;;;6.83;3.00;;;33.80;1.00;;;;;;5049610;28;20844;-77
2022/08/04 09:57:06;;;;;;;11.03;2.63;;;33.90;1.00;;;;;;5048877;28;20949;-76
2022/08/04 09:59:40;;;;;;;2.30;2.20;;;33.80;1.00;;;;;;5038248;28;20521;-76
2022/08/04 10:02:09;;;;;;;5.33;2.70;;;34.00;1.00;;;;;;5030145;28;20518;-76
2022/08/04 10:04:39;;;;;;;5.93;2.60;;;34.20;1.00;;;;;;5045517;28;20453;-77
2022/08/04 10:07:16;;;;;;;3.40;2.60;;;34.30;1.00;;;;;;5041553;28;20504;-79
2022/08/04 10:09:48;;;;;;;2.50;2.30;;;34.30;1.00;;;;;;5020152;28;20435;-79
2022/08/04 10:12:40;;;;;;;3.30;2.43;;;34.60;1.00;;;;;;5017899;28;20468;-78
2022/08/04 10:15:27;;;;;;;7.73;2.50;;;34.70;1.00;;;;;;5012547;28;20420;-78
2022/08/04 10:17:53;;;;;;;2.43;2.30;;;34.70;1.00;;;;;;5014198;28;20796;-78
2022/08/04 10:20:52;;;;;;;3.50;2.63;;;34.70;1.00;;;;;;5031523;28;20436;-78
2022/08/04 10:23:41;;;;;;;3.17;2.57;;;34.80;1.00;;;;;;5012377;28;20260;-79
2022/08/04 10:26:37;;;;;;;2.47;2.30;;;34.70;1.00;;;;;;5012324;28;20431;-78
2022/08/04 10:29:13;;;;;;;3.67;2.60;;;34.70;1.00;;;;;;5012766;28;20415;-79
2022/08/04 10:32:03;;;;;;;3.97;2.60;;;34.60;1.00;;;;;;5019295;28;20470;-81
2022/08/04 10:34:40;;;;;;;2.53;2.30;;;34.70;1.00;;;;;;5019594;28;20798;-78
2022/08/04 10:37:19;;;;;;;2.20;2.10;;;34.80;1.00;;;;;;5026240;28;20435;-79
2022/08/04 10:43:00;;;;;;;2.97;2.00;;;35.30;1.00;;;;;;5015906;28;20790;-78
2022/08/04 10:46:00;;;;;;;5.13;2.37;;;35.50;1.00;;;;;;5030075;28;20428;-78
2022/08/04 10:48:40;;;;;;;3.23;2.00;;;35.70;1.00;;;;;;5030809;28;20431;-79
2022/08/04 10:51:20;;;;;;;2.10;2.00;;;35.70;1.00;;;;;;5025458;28;20470;-79
2022/08/04 10:53:52;;;;;;;4.17;2.10;;;35.80;1.00;;;;;;5022535;28;20784;-77
2022/08/04 10:57:03;;;;;;;3.73;2.10;;;35.90;1.00;;;;;;5025452;28;20970;-78
2022/08/04 10:59:39;;;;;;;2.23;2.03;;;35.80;1.00;;;;;;5027912;28;20426;-77
2022/08/04 11:02:19;;;;;;;2.00;1.90;;;35.70;1.00;;;;;;5052550;28;20422;-78
2022/08/04 11:04:50;;;;;;;2.17;1.97;;;35.70;1.00;;;;;;5025919;28;20497;-78
2022/08/04 11:07:23;;;;;;;2.20;2.00;;;35.70;1.00;;;;;;5030548;28;20546;-77
2022/08/04 11:10:06;;;;;;;5.80;2.03;;;35.90;1.00;;;;;;5030530;28;20419;-79
2022/08/04 11:13:00;;;;;;;2.17;2.00;;;36.00;1.00;;;;;;5036727;28;20458;-78
2022/08/04 11:15:39;;;;;;;3.53;2.13;;;36.10;1.00;;;;;;5024230;28;20767;-78
2022/08/04 11:18:17;;;;;;;5.70;2.10;;;36.30;1.00;;;;;;5023085;28;20451;-78
2022/08/04 11:20:51;;;;;;;3.33;2.20;;;36.40;1.00;;;;;;5025590;28;20446;-74
2022/08/04 11:23:32;;;;;;;2.30;1.77;;;36.50;1.00;;;;;;5029284;28;20497;-74
2022/08/04 11:26:20;;;;;;;2.60;1.90;;;36.60;1.00;;;;;;5016075;28;20424;-74
2022/08/04 11:29:08;;;;;;;1.50;1.50;;;36.70;1.00;;;;;;5015950;28;20415;-75
2022/08/04 11:31:43;;;;;;;6.53;1.60;;;36.90;1.00;;;;;;5035117;28;20481;-75
2022/08/04 11:34:19;;;;;;;2.10;1.90;;;37.10;1.00;;;;;;5021653;28;20415;-75
2022/08/04 11:37:00;;;;;;;2.93;1.90;;;37.10;1.00;;;;;;5016675;28;20907;-75
2022/08/04 11:39:34;;;;;;;1.90;1.80;;;37.20;1.00;;;;;;5027714;28;20440;-75
2022/08/04 11:42:09;;;;;;;4.70;1.40;;;37.00;1.00;;;;;;5020763;28;20434;-75
2022/08/04 11:44:47;;;;;;;5.03;1.70;;;37.10;1.00;;;;;;5014801;28;20899;-75
2022/08/04 11:47:40;;;;;;;2.60;1.63;;;37.00;1.00;;;;;;5027863;28;20504;-76
2022/08/04 11:50:06;;;;;;;3.50;2.10;;;37.20;1.00;;;;;;5020240;28;20435;-73
2022/08/04 11:52:34;;;;;;;3.17;1.57;;;37.20;1.00;;;;;;5020758;28;20470;-74
2022/08/04 11:55:04;;;;;;;4.87;1.43;;;37.20;1.00;;;;;;5023432;28;20185;-74
2022/08/04 11:57:30;;;;;;;4.33;1.53;;;37.30;1.00;;;;;;5021912;28;20422;-74
2022/08/04 11:59:57;;;;;;;12.30;1.27;;;37.40;1.00;;;;;;5034366;28;20435;-73
2022/08/04 12:02:51;;;;;;;1.97;1.77;;;37.40;1.00;;;;;;5021776;28;20415;-76
2022/08/04 12:05:24;;;;;;;2.27;1.40;;;37.50;1.00;;;;;;5026666;28;20486;-76
2022/08/04 12:08:05;;;;;;;6.80;1.43;;;37.60;1.00;;;;;;5019866;28;20432;-76
2022/08/04 12:10:58;;;;;;;3.77;1.37;;;37.30;1.00;;;;;;5034718;28;20433;-76
2022/08/04 12:13:46;;;;;;;2.03;1.30;;;37.30;1.00;;;;;;5020197;28;20428;-76
2022/08/04 12:16:28;;;;;;;4.90;1.27;;;37.40;1.00;;;;;;5033787;28;20431;-76
2022/08/04 12:19:00;;;;;;;4.40;1.40;;;37.50;1.00;;;;;;5024999;28;20416;-75
2022/08/04 12:21:29;;;;;;;1.33;1.20;;;37.60;1.00;;;;;;5029240;28;20443;-76
2022/08/04 12:24:02;;;;;;;1.70;1.10;;;37.80;1.00;;;;;;5024624;28;20514;-75
2022/08/04 12:26:41;;;;;;;1.07;1.07;;;37.80;1.00;;;;;;5015157;28;20443;-75
2022/08/04 12:29:13;;;;;;;1.30;1.20;;;37.90;1.00;;;;;;5019682;28;20423;-75
2022/08/04 12:31:54;;;;;;;1.20;1.20;;;37.90;1.00;;;;;;5021721;28;20790;-75
2022/08/04 12:34:39;;;;;;;3.93;1.30;;;37.90;1.00;;;;;;5028307;28;20913;-76
2022/08/04 12:37:23;;;;;;;3.13;1.30;;;37.70;1.00;;;;;;5026122;28;20411;-75
2022/08/04 12:39:53;;;;;;;1.47;1.37;;;37.80;1.00;;;;;;5022143;28;20494;-78
2022/08/04 12:42:32;;;;;;;2.50;1.30;;;37.50;1.00;;;;;;5021576;28;21100;-78
2022/08/04 12:45:11;;;;;;;1.83;1.00;;;37.50;1.00;;;;;;5034587;28;20403;-78
2022/08/04 12:48:21;;;;;;;3.60;1.17;;;37.50;1.00;;;;;;5021573;28;20937;-78
2022/08/04 12:50:56;;;;;;;1.20;1.20;;;37.70;1.00;;;;;;5027176;28;20507;-78
2022/08/04 12:53:27;;;;;;;0.80;0.80;;;37.90;1.00;;;;;;5026180;28;20419;-78
2022/08/04 12:55:54;;;;;;;2.63;1.10;;;37.90;1.00;;;;;;5034473;28;20508;-78
2022/08/04 12:58:27;;;;;;;6.17;1.40;;;38.00;1.00;;;;;;5021680;28;20993;-79
2022/08/04 13:01:02;;;;;;;1.97;1.40;;;38.20;1.00;;;;;;5019945;28;20423;-79
2022/08/04 13:03:36;;;;;;;2.33;2.00;;;38.40;1.00;;;;;;5029388;28;20417;-79
2022/08/04 13:06:06;;;;;;;1.30;1.20;;;38.60;1.00;;;;;;5014467;28;20396;-77
2022/08/04 13:08:37;;;;;;;8.33;3.50;;;38.50;1.00;;;;;;5018229;28;20510;-77
2022/08/04 13:11:04;;;;;;;2.83;1.77;;;38.70;1.00;;;;;;5024317;28;20436;-78
2022/08/04 13:13:34;;;;;;;1.23;1.23;;;39.00;1.00;;;;;;5017870;28;20425;-78
2022/08/04 13:16:07;;;;;;;1.57;1.20;;;39.00;1.00;;;;;;5014664;28;20550;-78
2022/08/04 13:18:38;;;;;;;1.20;1.07;;;39.20;1.00;;;;;;5027645;28;20434;-78
2022/08/04 13:21:23;;;;;;;1.13;1.03;;;39.10;1.00;;;;;;5024531;28;20454;-78
2022/08/04 13:23:54;;;;;;;3.03;1.20;;;39.20;1.00;;;;;;5016682;28;20427;-76
2022/08/04 13:26:21;;;;;;;5.70;1.30;;;39.10;1.00;;;;;;5019855;28;20588;-75
2022/08/04 13:28:48;;;;;;;1.20;1.20;;;39.00;1.00;;;;;;5015685;28;20451;-76
2022/08/04 13:31:18;;;;;;;2.10;1.30;;;39.20;1.00;;;;;;5021743;28;20946;-75
2022/08/04 13:33:47;;;;;;;1.67;1.50;;;39.40;1.00;;;;;;5019976;28;20434;-75
2022/08/04 13:36:14;;;;;;;1.50;1.40;;;39.30;1.00;;;;;;5031225;28;20477;-76
2022/08/04 13:38:53;;;;;;;3.50;1.40;;;39.50;1.00;;;;;;5024397;28;20503;-76
2022/08/04 13:41:21;;;;;;;10.90;4.00;;;39.70;1.00;;;;;;5018226;28;20899;-75
2022/08/04 13:43:50;;;;;;;1.53;1.40;;;40.00;1.00;;;;;;5020655;28;20522;-75
2022/08/04 13:46:24;;;;;;;1.97;1.30;;;40.20;1.00;;;;;;5017506;28;20419;-75
2022/08/04 13:48:51;;;;;;;1.40;1.30;;;40.40;1.00;;;;;;5021780;28;20785;-75
2022/08/04 13:51:19;;;;;;;2.60;1.40;;;40.50;1.00;;;;;;5018238;28;20459;-75
2022/08/04 13:53:53;;;;;;;1.50;1.40;;;40.40;1.00;;;;;;5022162;28;20424;-77
2022/08/04 13:56:21;;;;;;;7.03;1.10;;;40.50;1.00;;;;;;5019091;28;20767;-76
2022/08/04 13:58:53;;;;;;;4.30;1.17;;;40.60;1.00;;;;;;5017527;28;20876;-76
2022/08/04 14:01:25;;;;;;;1.20;1.10;;;40.40;1.00;;;;;;5017274;28;20423;-75
2022/08/04 14:04:00;;;;;;;2.10;1.20;;;40.30;1.00;;;;;;5014630;28;20436;-75
2022/08/04 14:06:35;;;;;;;1.40;1.30;;;40.80;1.00;;;;;;5019490;28;20426;-76
2022/08/04 14:09:22;;;;;;;1.30;1.20;;;41.00;1.00;;;;;;5024436;28;20430;-77
2022/08/04 14:11:54;;;;;;;4.33;1.50;;;41.60;1.00;;;;;;5027431;28;20790;-78
2022/08/04 14:14:31;;;;;;;3.27;1.40;;;41.60;1.00;;;;;;5022003;28;20821;-79